sensor_id;sensor_type;location;lat;lon;timestamp;pressure;altitude;pressure_sealevel;temperature;humidity
20630;BME280;17386;43.846;25.950;2023-09-19T00:00:30;101652.94;;;20.70;81.75
20630;BME280;17386;43.846;25.950;2023-09-19T00:02:56;101643.00;;;20.70;81.83
20630;BME280;17386;43.846;25.950;2023-09-19T00:05:26;101643.84;;;20.71;81.74
20630;BME280;17386;43.846;25.950;2023-09-19T00:07:54;101639.91;;;20.48;83.84
20630;BME280;17386;43.846;25.950;2023-09-19T00:10:21;101648.03;;;20.48;86.58
20630;BME280;17386;43.846;25.950;2023-09-19T00:12:47;101636.25;;;20.49;86.85
20630;BME280;17386;43.846;25.950;2023-09-19T00:15:12;101636.53;;;20.44;85.89
20630;BME280;17386;43.846;25.950;2023-09-19T00:17:38;101628.25;;;20.47;86.06
20630;BME280;17386;43.846;25.950;2023-09-19T00:20:05;101627.41;;;20.47;87.39
20630;BME280;17386;43.846;25.950;2023-09-19T00:22:34;101635.94;;;20.39;88.13
20630;BME280;17386;43.846;25.950;2023-09-19T00:24:59;101636.13;;;20.36;89.00
20630;BME280;17386;43.846;25.950;2023-09-19T00:27:26;101628.88;;;20.22;90.02
20630;BME280;17386;43.846;25.950;2023-09-19T00:29:51;101628.50;;;20.29;89.38
20630;BME280;17386;43.846;25.950;2023-09-19T00:32:18;101632.84;;;20.31;88.96
20630;BME280;17386;43.846;25.950;2023-09-19T00:34:43;101634.59;;;20.32;88.87
20630;BME280;17386;43.846;25.950;2023-09-19T00:37:09;101637.09;;;20.21;89.23
20630;BME280;17386;43.846;25.950;2023-09-19T00:39:36;101633.31;;;20.23;88.53
20630;BME280;17386;43.846;25.950;2023-09-19T00:42:02;101643.59;;;20.03;90.24
20630;BME280;17386;43.846;25.950;2023-09-19T00:44:30;101626.06;;;20.10;89.46
20630;BME280;17386;43.846;25.950;2023-09-19T00:46:55;101633.41;;;20.08;90.56
20630;BME280;17386;43.846;25.950;2023-09-19T00:49:21;101641.59;;;20.06;90.79
20630;BME280;17386;43.846;25.950;2023-09-19T00:51:48;101637.34;;;20.02;90.74
20630;BME280;17386;43.846;25.950;2023-09-19T00:54:15;101636.84;;;19.95;91.57
20630;BME280;17386;43.846;25.950;2023-09-19T00:56:44;101633.47;;;19.92;92.04
20630;BME280;17386;43.846;25.950;2023-09-19T00:59:10;101638.88;;;19.92;92.32
20630;BME280;17386;43.846;25.950;2023-09-19T01:01:37;101641.84;;;19.87;92.52
20630;BME280;17386;43.846;25.950;2023-09-19T01:04:05;101635.78;;;19.84;92.52
20630;BME280;17386;43.846;25.950;2023-09-19T01:06:31;101639.41;;;19.83;91.77
20630;BME280;17386;43.846;25.950;2023-09-19T01:08:57;101629.78;;;19.79;90.73
20630;BME280;17386;43.846;25.950;2023-09-19T01:11:35;101620.22;;;19.73;89.66
20630;BME280;17386;43.846;25.950;2023-09-19T01:16:53;101622.53;;;19.65;89.55
20630;BME280;17386;43.846;25.950;2023-09-19T01:19:42;101611.25;;;19.58;89.69
20630;BME280;17386;43.846;25.950;2023-09-19T01:22:33;101613.19;;;19.55;89.87
20630;BME280;17386;43.846;25.950;2023-09-19T01:25:07;101619.56;;;19.54;89.76
20630;BME280;17386;43.846;25.950;2023-09-19T01:27:53;101623.22;;;19.53;89.96
20630;BME280;17386;43.846;25.950;2023-09-19T01:30:32;101615.38;;;19.48;90.08
20630;BME280;17386;43.846;25.950;2023-09-19T01:32:59;101616.53;;;19.44;90.02
20630;BME280;17386;43.846;25.950;2023-09-19T01:35:25;101615.06;;;19.38;90.21
20630;BME280;17386;43.846;25.950;2023-09-19T01:37:51;101601.69;;;19.37;90.37
20630;BME280;17386;43.846;25.950;2023-09-19T01:40:20;101603.44;;;19.38;90.68
20630;BME280;17386;43.846;25.950;2023-09-19T01:42:59;101604.41;;;19.37;90.67
20630;BME280;17386;43.846;25.950;2023-09-19T01:51:39;101610.25;;;19.29;91.20
20630;BME280;17386;43.846;25.950;2023-09-19T01:54:10;101597.88;;;19.25;91.34
20630;BME280;17386;43.846;25.950;2023-09-19T01:56:53;101592.59;;;19.24;91.56
20630;BME280;17386;43.846;25.950;2023-09-19T01:59:40;101599.97;;;19.20;91.59
20630;BME280;17386;43.846;25.950;2023-09-19T02:02:06;101591.56;;;19.10;91.90
20630;BME280;17386;43.846;25.950;2023-09-19T02:04:33;101592.69;;;19.06;92.26
20630;BME280;17386;43.846;25.950;2023-09-19T02:07:00;101595.50;;;18.89;93.05
20630;BME280;17386;43.846;25.950;2023-09-19T02:09:26;101597.06;;;18.77;93.64
20630;BME280;17386;43.846;25.950;2023-09-19T02:11:52;101602.28;;;18.80;93.91
20630;BME280;17386;43.846;25.950;2023-09-19T02:14:17;101587.16;;;18.78;93.93
20630;BME280;17386;43.846;25.950;2023-09-19T02:16:44;101589.16;;;18.74;94.01
20630;BME280;17386;43.846;25.950;2023-09-19T02:19:10;101591.84;;;18.74;94.04
20630;BME280;17386;43.846;25.950;2023-09-19T02:21:35;101597.25;;;18.74;95.50
20630;BME280;17386;43.846;25.950;2023-09-19T02:24:02;101591.56;;;18.79;96.03
20630;BME280;17386;43.846;25.950;2023-09-19T02:26:28;101586.03;;;18.82;95.30
20630;BME280;17386;43.846;25.950;2023-09-19T02:28:53;101581.44;;;18.84;94.61
20630;BME280;17386;43.846;25.950;2023-09-19T02:31:19;101581.69;;;18.79;94.58
20630;BME280;17386;43.846;25.950;2023-09-19T02:33:44;101588.19;;;18.75;94.97
20630;BME280;17386;43.846;25.950;2023-09-19T02:36:11;101588.53;;;18.69;95.04
20630;BME280;17386;43.846;25.950;2023-09-19T02:38:37;101586.81;;;18.68;95.01
20630;BME280;17386;43.846;25.950;2023-09-19T02:41:02;101588.94;;;18.62;95.30
20630;BME280;17386;43.846;25.950;2023-09-19T02:43:28;101592.84;;;18.56;95.52
20630;BME280;17386;43.846;25.950;2023-09-19T02:45:54;101597.69;;;18.49;95.75
20630;BME280;17386;43.846;25.950;2023-09-19T02:48:19;101598.66;;;18.48;96.08
20630;BME280;17386;43.846;25.950;2023-09-19T02:50:54;101600.38;;;18.49;96.09
20630;BME280;17386;43.846;25.950;2023-09-19T02:53:19;101596.09;;;18.45;96.33
20630;BME280;17386;43.846;25.950;2023-09-19T02:55:46;101605.84;;;18.48;96.53
20630;BME280;17386;43.846;25.950;2023-09-19T02:58:12;101600.63;;;18.45;96.33
20630;BME280;17386;43.846;25.950;2023-09-19T03:00:39;101602.53;;;18.43;98.19
20630;BME280;17386;43.846;25.950;2023-09-19T03:03:07;101597.88;;;18.46;100.00
20630;BME280;17386;43.846;25.950;2023-09-19T03:05:34;101599.44;;;18.50;100.00
20630;BME280;17386;43.846;25.950;2023-09-19T03:08:00;101595.97;;;18.48;100.00
20630;BME280;17386;43.846;25.950;2023-09-19T03:10:29;101595.00;;;18.49;100.00
20630;BME280;17386;43.846;25.950;2023-09-19T03:12:56;101595.25;;;18.45;100.00
20630;BME280;17386;43.846;25.950;2023-09-19T03:15:23;101595.44;;;18.42;100.00
20630;BME280;17386;43.846;25.950;2023-09-19T03:17:48;101601.75;;;18.41;100.00
20630;BME280;17386;43.846;25.950;2023-09-19T03:20:15;101604.59;;;18.38;100.00
20630;BME280;17386;43.846;25.950;2023-09-19T03:22:45;101599.94;;;18.41;100.00
20630;BME280;17386;43.846;25.950;2023-09-19T03:25:12;101594.97;;;18.34;100.00
20630;BME280;17386;43.846;25.950;2023-09-19T03:27:38;101606.75;;;18.31;100.00
20630;BME280;17386;43.846;25.950;2023-09-19T03:30:04;101607.09;;;18.25;100.00
20630;BME280;17386;43.846;25.950;2023-09-19T03:32:36;101611.78;;;18.21;100.00
20630;BME280;17386;43.846;25.950;2023-09-19T03:35:02;101620.19;;;18.15;100.00
20630;BME280;17386;43.846;25.950;2023-09-19T03:37:30;101615.91;;;18.11;100.00
20630;BME280;17386;43.846;25.950;2023-09-19T03:39:56;101620.59;;;18.08;100.00
20630;BME280;17386;43.846;25.950;2023-09-19T03:42:22;101613.72;;;18.02;100.00
20630;BME280;17386;43.846;25.950;2023-09-19T03:44:52;101616.06;;;17.91;100.00
20630;BME280;17386;43.846;25.950;2023-09-19T03:47:18;101618.16;;;17.86;100.00
20630;BME280;17386;43.846;25.950;2023-09-19T03:49:44;101616.78;;;17.77;100.00
20630;BME280;17386;43.846;25.950;2023-09-19T03:52:10;101612.56;;;17.73;100.00
20630;BME280;17386;43.846;25.950;2023-09-19T03:54:35;101612.56;;;17.73;100.00
20630;BME280;17386;43.846;25.950;2023-09-19T03:57:00;101607.16;;;17.73;100.00
20630;BME280;17386;43.846;25.950;2023-09-19T03:59:26;101608.81;;;17.75;100.00
20630;BME280;17386;43.846;25.950;2023-09-19T04:01:52;101597.94;;;17.79;100.00
20630;BME280;17386;43.846;25.950;2023-09-19T04:04:21;101590.81;;;17.77;100.00
20630;BME280;17386;43.846;25.950;2023-09-19T04:06:46;101612.06;;;17.82;100.00
20630;BME280;17386;43.846;25.950;2023-09-19T04:09:12;101607.47;;;17.84;100.00
20630;BME280;17386;43.846;25.950;2023-09-19T04:11:38;101610.06;;;17.68;100.00
20630;BME280;17386;43.846;25.950;2023-09-19T04:14:03;101620.16;;;17.46;100.00
20630;BME280;17386;43.846;25.950;2023-09-19T04:16:29;101621.91;;;17.47;100.00
20630;BME280;17386;43.846;25.950;2023-09-19T04:18:55;101622.22;;;17.41;100.00
20630;BME280;17386;43.846;25.950;2023-09-19T04:21:20;101615.75;;;17.45;100.00
20630;BME280;17386;43.846;25.950;2023-09-19T04:23:45;101604.28;;;17.41;100.00
20630;BME280;17386;43.846;25.950;2023-09-19T04:26:11;101616.75;;;17.42;100.00
20630;BME280;17386;43.846;25.950;2023-09-19T04:28:37;101614.06;;;17.42;100.00
20630;BME280;17386;43.846;25.950;2023-09-19T04:31:03;101618.66;;;17.40;100.00
20630;BME280;17386;43.846;25.950;2023-09-19T04:33:29;101623.16;;;17.40;100.00
20630;BME280;17386;43.846;25.950;2023-09-19T04:35:55;101610.91;;;17.34;100.00
20630;BME280;17386;43.846;25.950;2023-09-19T04:38:21;101619.81;;;17.35;100.00
20630;BME280;17386;43.846;25.950;2023-09-19T04:40:47;101617.00;;;17.38;100.00
20630;BME280;17386;43.846;25.950;2023-09-19T04:43:12;101620.31;;;17.43;100.00
20630;BME280;17386;43.846;25.950;2023-09-19T04:45:39;101626.50;;;17.45;100.00
20630;BME280;17386;43.846;25.950;2023-09-19T04:48:05;101630.25;;;17.41;100.00
20630;BME280;17386;43.846;25.950;2023-09-19T04:50:33;101632.25;;;17.37;100.00
20630;BME280;17386;43.846;25.950;2023-09-19T04:52:59;101627.50;;;17.42;100.00
20630;BME280;17386;43.846;25.950;2023-09-19T04:55:25;101614.31;;;17.38;100.00
20630;BME280;17386;43.846;25.950;2023-09-19T04:57:51;101620.88;;;17.49;100.00
20630;BME280;17386;43.846;25.950;2023-09-19T05:00:19;101609.81;;;17.56;100.00
20630;BME280;17386;43.846;25.950;2023-09-19T05:02:51;101601.53;;;17.60;100.00
20630;BME280;17386;43.846;25.950;2023-09-19T05:05:18;101579.56;;;17.52;100.00
20630;BME280;17386;43.846;25.950;2023-09-19T05:07:45;101603.53;;;17.74;100.00
20630;BME280;17386;43.846;25.950;2023-09-19T05:10:10;101594.44;;;17.76;99.48
20630;BME280;17386;43.846;25.950;2023-09-19T05:12:37;101595.84;;;17.84;99.09
20630;BME280;17386;43.846;25.950;2023-09-19T05:15:06;101591.97;;;17.89;98.97
20630;BME280;17386;43.846;25.950;2023-09-19T05:17:35;101591.75;;;17.94;98.71
20630;BME280;17386;43.846;25.950;2023-09-19T05:20:01;101576.81;;;17.88;98.50
20630;BME280;17386;43.846;25.950;2023-09-19T05:22:43;101592.50;;;18.13;99.42
20630;BME280;17386;43.846;25.950;2023-09-19T05:25:10;101592.88;;;18.23;99.08
20630;BME280;17386;43.846;25.950;2023-09-19T05:27:36;101581.59;;;18.32;98.11
20630;BME280;17386;43.846;25.950;2023-09-19T05:30:01;101584.47;;;18.45;97.78
20630;BME280;17386;43.846;25.950;2023-09-19T05:32:27;101590.16;;;18.56;97.39
20630;BME280;17386;43.846;25.950;2023-09-19T05:34:52;101594.69;;;18.71;96.51
20630;BME280;17386;43.846;25.950;2023-09-19T05:37:21;101594.22;;;18.80;96.00
20630;BME280;17386;43.846;25.950;2023-09-19T05:39:48;101593.41;;;18.94;95.39
20630;BME280;17386;43.846;25.950;2023-09-19T05:42:13;101590.88;;;19.07;94.81
20630;BME280;17386;43.846;25.950;2023-09-19T05:44:39;101599.41;;;19.15;94.57
20630;BME280;17386;43.846;25.950;2023-09-19T05:47:04;101582.28;;;19.16;93.50
20630;BME280;17386;43.846;25.950;2023-09-19T05:49:30;101584.22;;;19.28;93.89
20630;BME280;17386;43.846;25.950;2023-09-19T05:51:55;101590.47;;;19.45;93.13
20630;BME280;17386;43.846;25.950;2023-09-19T05:54:24;101583.56;;;19.55;92.64
20630;BME280;17386;43.846;25.950;2023-09-19T05:56:49;101582.84;;;19.67;92.58
20630;BME280;17386;43.846;25.950;2023-09-19T05:59:17;101580.38;;;19.78;91.12
20630;BME280;17386;43.846;25.950;2023-09-19T06:01:43;101578.94;;;19.87;91.06
20630;BME280;17386;43.846;25.950;2023-09-19T06:04:08;101584.63;;;19.97;90.59
20630;BME280;17386;43.846;25.950;2023-09-19T06:06:35;101582.16;;;20.08;90.45
20630;BME280;17386;43.846;25.950;2023-09-19T06:09:04;101579.94;;;20.14;89.37
20630;BME280;17386;43.846;25.950;2023-09-19T06:11:30;101577.53;;;20.24;89.01
20630;BME280;17386;43.846;25.950;2023-09-19T06:13:57;101570.59;;;20.34;88.83
20630;BME280;17386;43.846;25.950;2023-09-19T06:16:25;101576.25;;;20.44;88.39
20630;BME280;17386;43.846;25.950;2023-09-19T06:18:51;101576.38;;;20.57;87.94
20630;BME280;17386;43.846;25.950;2023-09-19T06:21:18;101581.00;;;20.69;87.36
20630;BME280;17386;43.846;25.950;2023-09-19T06:23:43;101579.34;;;20.81;86.51
20630;BME280;17386;43.846;25.950;2023-09-19T06:26:09;101577.75;;;20.91;86.05
20630;BME280;17386;43.846;25.950;2023-09-19T06:28:34;101556.91;;;20.93;85.85
20630;BME280;17386;43.846;25.950;2023-09-19T06:31:02;101577.41;;;21.10;85.56
20630;BME280;17386;43.846;25.950;2023-09-19T06:33:28;101570.88;;;21.26;84.95
20630;BME280;17386;43.846;25.950;2023-09-19T06:35:56;101572.31;;;21.32;83.36
20630;BME280;17386;43.846;25.950;2023-09-19T06:38:25;101578.81;;;21.29;83.11
20630;BME280;17386;43.846;25.950;2023-09-19T06:40:50;101574.31;;;21.43;83.14
20630;BME280;17386;43.846;25.950;2023-09-19T06:43:16;101574.00;;;21.60;83.01
20630;BME280;17386;43.846;25.950;2023-09-19T06:45:42;101564.75;;;21.77;82.56
20630;BME280;17386;43.846;25.950;2023-09-19T06:48:07;101574.25;;;21.95;80.95
20630;BME280;17386;43.846;25.950;2023-09-19T06:50:34;101571.91;;;22.03;80.14
20630;BME280;17386;43.846;25.950;2023-09-19T06:53:01;101569.44;;;22.13;79.95
20630;BME280;17386;43.846;25.950;2023-09-19T06:55:27;101570.53;;;22.10;80.97
20630;BME280;17386;43.846;25.950;2023-09-19T06:57:53;101568.97;;;22.06;81.43
20630;BME280;17386;43.846;25.950;2023-09-19T07:00:19;101572.75;;;21.91;82.11
20630;BME280;17386;43.846;25.950;2023-09-19T07:03:04;101571.47;;;21.84;82.93
20630;BME280;17386;43.846;25.950;2023-09-19T07:05:33;101575.22;;;21.81;83.27
20630;BME280;17386;43.846;25.950;2023-09-19T07:08:01;101576.72;;;21.73;83.54
20630;BME280;17386;43.846;25.950;2023-09-19T07:10:28;101568.75;;;21.84;83.72
20630;BME280;17386;43.846;25.950;2023-09-19T07:13:00;101559.44;;;21.88;83.43
20630;BME280;17386;43.846;25.950;2023-09-19T07:15:27;101555.66;;;22.03;82.97
20630;BME280;17386;43.846;25.950;2023-09-19T07:17:54;101551.53;;;22.23;82.32
20630;BME280;17386;43.846;25.950;2023-09-19T07:20:22;101556.31;;;22.32;80.04
20630;BME280;17386;43.846;25.950;2023-09-19T07:22:49;101557.28;;;22.44;79.49
20630;BME280;17386;43.846;25.950;2023-09-19T07:25:16;101551.94;;;22.55;79.33
20630;BME280;17386;43.846;25.950;2023-09-19T07:27:41;101554.59;;;22.68;79.17
20630;BME280;17386;43.846;25.950;2023-09-19T07:30:08;101549.28;;;22.79;78.87
20630;BME280;17386;43.846;25.950;2023-09-19T07:32:33;101546.03;;;22.87;78.85
20630;BME280;17386;43.846;25.950;2023-09-19T07:35:01;101530.25;;;22.92;79.34
20630;BME280;17386;43.846;25.950;2023-09-19T07:37:29;101540.63;;;22.98;79.42
20630;BME280;17386;43.846;25.950;2023-09-19T07:39:54;101542.19;;;22.89;78.66
20630;BME280;17386;43.846;25.950;2023-09-19T07:42:20;101536.06;;;22.75;79.22
20630;BME280;17386;43.846;25.950;2023-09-19T07:44:45;101528.03;;;22.86;79.44
20630;BME280;17386;43.846;25.950;2023-09-19T07:47:16;101513.69;;;22.84;77.12
20630;BME280;17386;43.846;25.950;2023-09-19T07:49:42;101510.38;;;23.04;75.87
20630;BME280;17386;43.846;25.950;2023-09-19T07:52:08;101505.94;;;23.27;75.75
20630;BME280;17386;43.846;25.950;2023-09-19T07:54:35;101510.66;;;23.47;73.87
20630;BME280;17386;43.846;25.950;2023-09-19T07:57:04;101501.28;;;23.40;70.94
20630;BME280;17386;43.846;25.950;2023-09-19T07:59:29;101499.94;;;23.57;68.11
20630;BME280;17386;43.846;25.950;2023-09-19T08:01:55;101502.81;;;23.67;68.04
20630;BME280;17386;43.846;25.950;2023-09-19T08:04:20;101497.97;;;23.59;68.32
20630;BME280;17386;43.846;25.950;2023-09-19T08:06:46;101494.13;;;23.74;68.27
20630;BME280;17386;43.846;25.950;2023-09-19T08:09:11;101489.91;;;23.70;67.93
20630;BME280;17386;43.846;25.950;2023-09-19T08:11:39;101488.69;;;23.97;63.74
20630;BME280;17386;43.846;25.950;2023-09-19T08:14:04;101487.56;;;24.22;56.99
20630;BME280;17386;43.846;25.950;2023-09-19T08:16:31;101490.16;;;24.46;56.61
20630;BME280;17386;43.846;25.950;2023-09-19T08:18:56;101484.19;;;24.63;56.57
20630;BME280;17386;43.846;25.950;2023-09-19T08:21:22;101480.41;;;24.87;56.13
20630;BME280;17386;43.846;25.950;2023-09-19T08:23:49;101477.63;;;24.98;55.16
20630;BME280;17386;43.846;25.950;2023-09-19T08:26:15;101492.63;;;25.24;58.00
20630;BME280;17386;43.846;25.950;2023-09-19T08:28:40;101483.69;;;25.33;58.90
20630;BME280;17386;43.846;25.950;2023-09-19T08:31:07;101485.41;;;25.34;59.76
20630;BME280;17386;43.846;25.950;2023-09-19T08:33:37;101480.78;;;25.46;58.04
20630;BME280;17386;43.846;25.950;2023-09-19T08:36:03;101475.72;;;25.62;54.29
20630;BME280;17386;43.846;25.950;2023-09-19T08:38:31;101476.56;;;25.84;53.35
20630;BME280;17386;43.846;25.950;2023-09-19T08:41:01;101465.59;;;25.95;54.43
20630;BME280;17386;43.846;25.950;2023-09-19T08:43:30;101471.06;;;26.05;53.62
20630;BME280;17386;43.846;25.950;2023-09-19T08:46:09;101464.63;;;26.06;52.62
20630;BME280;17386;43.846;25.950;2023-09-19T08:48:39;101454.50;;;26.17;53.25
20630;BME280;17386;43.846;25.950;2023-09-19T08:51:27;101457.53;;;26.24;48.11
20630;BME280;17386;43.846;25.950;2023-09-19T08:54:08;101465.66;;;26.55;47.86
20630;BME280;17386;43.846;25.950;2023-09-19T08:56:37;101462.94;;;26.74;46.69
20630;BME280;17386;43.846;25.950;2023-09-19T08:59:06;101454.22;;;26.99;41.85
20630;BME280;17386;43.846;25.950;2023-09-19T09:01:38;101449.94;;;27.26;39.32
20630;BME280;17386;43.846;25.950;2023-09-19T09:04:08;101448.59;;;27.40;38.08
20630;BME280;17386;43.846;25.950;2023-09-19T09:06:35;101440.97;;;27.53;37.15
20630;BME280;17386;43.846;25.950;2023-09-19T09:09:02;101440.75;;;27.64;36.25
20630;BME280;17386;43.846;25.950;2023-09-19T09:11:33;101434.03;;;27.59;35.38
20630;BME280;17386;43.846;25.950;2023-09-19T09:13:58;101430.06;;;27.53;36.63
20630;BME280;17386;43.846;25.950;2023-09-19T09:16:24;101425.59;;;27.42;36.55
20630;BME280;17386;43.846;25.950;2023-09-19T09:18:51;101423.78;;;27.23;37.48
20630;BME280;17386;43.846;25.950;2023-09-19T09:21:18;101414.19;;;27.10;37.41
20630;BME280;17386;43.846;25.950;2023-09-19T09:23:44;101409.13;;;27.24;37.45
20630;BME280;17386;43.846;25.950;2023-09-19T09:26:09;101403.63;;;27.44;37.22
20630;BME280;17386;43.846;25.950;2023-09-19T09:28:35;101408.72;;;27.76;37.10
20630;BME280;17386;43.846;25.950;2023-09-19T09:31:04;101412.13;;;28.15;36.50
20630;BME280;17386;43.846;25.950;2023-09-19T09:33:37;101406.09;;;28.39;35.42
20630;BME280;17386;43.846;25.950;2023-09-19T09:36:04;101405.63;;;28.61;35.03
20630;BME280;17386;43.846;25.950;2023-09-19T09:38:45;101400.63;;;28.75;34.28
20630;BME280;17386;43.846;25.950;2023-09-19T09:41:12;101407.78;;;29.03;34.01
20630;BME280;17386;43.846;25.950;2023-09-19T09:43:42;101406.22;;;29.27;33.56
20630;BME280;17386;43.846;25.950;2023-09-19T09:46:18;101401.09;;;29.24;32.10
20630;BME280;17386;43.846;25.950;2023-09-19T09:49:06;101400.59;;;29.28;32.72
20630;BME280;17386;43.846;25.950;2023-09-19T09:52:03;101419.94;;;28.73;33.72
20630;BME280;17386;43.846;25.950;2023-09-19T09:54:33;101404.78;;;28.61;34.19
20630;BME280;17386;43.846;25.950;2023-09-19T09:57:06;101410.63;;;28.30;34.37
20630;BME280;17386;43.846;25.950;2023-09-19T09:59:54;101410.25;;;28.16;34.03
20630;BME280;17386;43.846;25.950;2023-09-19T10:02:43;101406.94;;;28.12;34.58
20630;BME280;17386;43.846;25.950;2023-09-19T10:05:13;101410.09;;;28.17;33.06
20630;BME280;17386;43.846;25.950;2023-09-19T10:07:42;101402.06;;;28.43;33.37
20630;BME280;17386;43.846;25.950;2023-09-19T10:10:14;101403.69;;;28.54;33.35
20630;BME280;17386;43.846;25.950;2023-09-19T10:12:48;101389.94;;;28.46;32.34
20630;BME280;17386;43.846;25.950;2023-09-19T10:15:18;101400.09;;;28.36;33.25
20630;BME280;17386;43.846;25.950;2023-09-19T10:17:46;101404.13;;;28.31;33.23
20630;BME280;17386;43.846;25.950;2023-09-19T10:20:13;101398.50;;;28.33;33.72
20630;BME280;17386;43.846;25.950;2023-09-19T10:22:57;101398.47;;;28.15;34.13
20630;BME280;17386;43.846;25.950;2023-09-19T10:25:26;101394.50;;;28.00;33.76
20630;BME280;17386;43.846;25.950;2023-09-19T10:27:54;101396.19;;;28.11;33.94
20630;BME280;17386;43.846;25.950;2023-09-19T10:30:22;101388.69;;;28.13;33.34
20630;BME280;17386;43.846;25.950;2023-09-19T10:32:57;101384.25;;;28.12;34.14
20630;BME280;17386;43.846;25.950;2023-09-19T10:35:25;101384.31;;;28.02;33.37
20630;BME280;17386;43.846;25.950;2023-09-19T10:37:51;101375.22;;;27.84;33.10
20630;BME280;17386;43.846;25.950;2023-09-19T10:40:20;101368.53;;;27.96;33.16
20630;BME280;17386;43.846;25.950;2023-09-19T10:42:48;101377.84;;;28.03;33.30
20630;BME280;17386;43.846;25.950;2023-09-19T10:45:16;101371.94;;;28.07;33.72
20630;BME280;17386;43.846;25.950;2023-09-19T10:47:44;101365.03;;;28.31;33.02
20630;BME280;17386;43.846;25.950;2023-09-19T10:50:19;101368.53;;;28.59;32.87
20630;BME280;17386;43.846;25.950;2023-09-19T10:52:47;101361.44;;;28.84;33.06
20630;BME280;17386;43.846;25.950;2023-09-19T10:55:19;101363.63;;;28.98;32.43
20630;BME280;17386;43.846;25.950;2023-09-19T10:57:47;101363.66;;;29.06;30.94
20630;BME280;17386;43.846;25.950;2023-09-19T11:00:13;101361.00;;;29.14;30.72
20630;BME280;17386;43.846;25.950;2023-09-19T11:05:39;101352.19;;;29.29;31.11
20630;BME280;17386;43.846;25.950;2023-09-19T11:08:10;101347.06;;;29.26;31.14
20630;BME280;17386;43.846;25.950;2023-09-19T11:10:50;101345.44;;;29.15;30.96
20630;BME280;17386;43.846;25.950;2023-09-19T11:13:27;101345.94;;;29.10;31.35
20630;BME280;17386;43.846;25.950;2023-09-19T11:26:50;101334.78;;;28.68;33.14
20630;BME280;17386;43.846;25.950;2023-09-19T11:29:27;101340.97;;;28.70;33.48
20630;BME280;17386;43.846;25.950;2023-09-19T11:31:55;101346.59;;;28.69;33.97
20630;BME280;17386;43.846;25.950;2023-09-19T11:39:42;101347.69;;;28.40;35.27
20630;BME280;17386;43.846;25.950;2023-09-19T11:42:45;101348.72;;;28.57;33.84
20630;BME280;17386;43.846;25.950;2023-09-19T11:48:16;101335.81;;;28.67;31.96
20630;BME280;17386;43.846;25.950;2023-09-19T11:50:44;101330.28;;;28.59;32.76
20630;BME280;17386;43.846;25.950;2023-09-19T11:53:11;101324.34;;;28.64;32.59
20630;BME280;17386;43.846;25.950;2023-09-19T11:55:38;101310.44;;;28.57;32.13
20630;BME280;17386;43.846;25.950;2023-09-19T11:58:07;101318.88;;;28.64;32.06
20630;BME280;17386;43.846;25.950;2023-09-19T12:00:34;101327.25;;;28.62;32.08
20630;BME280;17386;43.846;25.950;2023-09-19T12:03:01;101325.38;;;28.63;32.77
20630;BME280;17386;43.846;25.950;2023-09-19T12:05:31;101322.25;;;28.57;32.81
20630;BME280;17386;43.846;25.950;2023-09-19T12:07:58;101315.06;;;28.56;32.95
20630;BME280;17386;43.846;25.950;2023-09-19T12:10:24;101317.25;;;28.53;32.88
20630;BME280;17386;43.846;25.950;2023-09-19T12:12:50;101313.97;;;28.49;32.89
20630;BME280;17386;43.846;25.950;2023-09-19T12:15:27;101308.97;;;28.45;33.40
20630;BME280;17386;43.846;25.950;2023-09-19T12:17:59;101304.13;;;28.39;33.27
20630;BME280;17386;43.846;25.950;2023-09-19T12:20:24;101308.28;;;28.43;32.81
20630;BME280;17386;43.846;25.950;2023-09-19T12:22:50;101301.63;;;28.45;32.60
20630;BME280;17386;43.846;25.950;2023-09-19T12:25:16;101296.56;;;28.50;32.72
20630;BME280;17386;43.846;25.950;2023-09-19T12:27:49;101296.56;;;28.50;32.24
20630;BME280;17386;43.846;25.950;2023-09-19T12:30:18;101294.34;;;28.54;32.08
20630;BME280;17386;43.846;25.950;2023-09-19T12:32:46;101300.38;;;28.57;31.74
20630;BME280;17386;43.846;25.950;2023-09-19T12:35:31;101303.09;;;28.57;31.89
20630;BME280;17386;43.846;25.950;2023-09-19T12:38:00;101292.41;;;28.46;32.04
20630;BME280;17386;43.846;25.950;2023-09-19T12:40:26;101291.88;;;28.43;32.48
20630;BME280;17386;43.846;25.950;2023-09-19T12:42:55;101292.00;;;28.41;32.70
20630;BME280;17386;43.846;25.950;2023-09-19T12:45:21;101296.16;;;28.45;32.76
20630;BME280;17386;43.846;25.950;2023-09-19T12:48:18;101286.88;;;28.56;33.37
20630;BME280;17386;43.846;25.950;2023-09-19T12:51:07;101289.75;;;28.54;31.85
20630;BME280;17386;43.846;25.950;2023-09-19T12:53:42;101286.88;;;28.56;31.71
20630;BME280;17386;43.846;25.950;2023-09-19T12:56:13;101285.47;;;28.52;31.49
20630;BME280;17386;43.846;25.950;2023-09-19T12:58:57;101282.56;;;28.53;31.61
20630;BME280;17386;43.846;25.950;2023-09-19T13:01:31;101280.91;;;28.60;31.76
20630;BME280;17386;43.846;25.950;2023-09-19T13:04:16;101272.06;;;28.67;32.37
20630;BME280;17386;43.846;25.950;2023-09-19T13:06:51;101278.41;;;28.67;31.60
20630;BME280;17386;43.846;25.950;2023-09-19T13:09:18;101267.25;;;28.60;31.53
20630;BME280;17386;43.846;25.950;2023-09-19T13:11:46;101270.06;;;28.69;31.83
20630;BME280;17386;43.846;25.950;2023-09-19T13:14:26;101258.38;;;28.84;31.71
20630;BME280;17386;43.846;25.950;2023-09-19T13:17:01;101261.00;;;28.94;31.01